createdAt,value
2018-12-19T00:00:57.053Z,29.87
2018-12-19T00:03:26.693Z,30.70
2018-12-19T00:05:56.300Z,31.23
2018-12-19T00:08:25.883Z,31.60
2018-12-19T00:10:55.532Z,30.70
2018-12-19T00:13:25.152Z,32.90
2018-12-19T00:15:54.711Z,31.20
2018-12-19T00:18:24.329Z,29.83
2018-12-19T00:20:53.902Z,31.83
2018-12-19T00:23:23.546Z,30.80
2018-12-19T00:25:53.151Z,30.30
2018-12-19T00:28:22.929Z,30.80
2018-12-19T00:30:52.626Z,29.70
2018-12-19T00:33:22.192Z,31.87
2018-12-19T00:35:51.837Z,30.33
2018-12-19T00:38:21.414Z,31.00
2018-12-19T00:40:51.003Z,31.27
2018-12-19T00:43:20.561Z,31.57
2018-12-19T00:45:50.131Z,31.03
2018-12-19T00:48:19.980Z,30.57
2018-12-19T00:50:49.573Z,31.17
2018-12-19T00:53:19.281Z,32.30
2018-12-19T00:55:48.892Z,31.57
2018-12-19T00:58:18.501Z,32.47
2018-12-19T01:00:48.402Z,32.13
2018-12-19T01:03:24.663Z,32.67
2018-12-19T01:05:54.311Z,33.13
2018-12-19T01:08:23.884Z,32.23
2018-12-19T01:10:53.531Z,32.30
2018-12-19T01:13:23.175Z,32.70
2018-12-19T01:15:52.744Z,33.57
2018-12-19T01:18:22.642Z,32.23
2018-12-19T01:20:52.242Z,31.73
2018-12-19T01:23:21.892Z,33.50
2018-12-19T01:25:51.453Z,33.90
2018-12-19T01:28:20.995Z,34.60
2018-12-19T01:30:50.595Z,34.40
2018-12-19T01:33:20.153Z,35.80
2018-12-19T01:35:49.761Z,34.37
2018-12-19T01:38:19.461Z,34.83
2018-12-19T01:40:49.059Z,34.73
2018-12-19T01:43:18.635Z,34.30
2018-12-19T01:45:48.231Z,34.40
2018-12-19T01:48:17.863Z,34.27
2018-12-19T01:50:47.538Z,35.33
2018-12-19T01:53:17.198Z,35.80
2018-12-19T01:55:47.142Z,35.20
2018-12-19T01:58:16.819Z,36.10
2018-12-19T02:00:46.518Z,35.27
2018-12-19T02:03:16.102Z,35.00
2018-12-19T02:05:45.782Z,36.30
2018-12-19T02:08:15.395Z,33.77
2018-12-19T02:10:44.998Z,35.63
2018-12-19T02:13:14.595Z,35.10
2018-12-19T02:15:44.169Z,35.63
2018-12-19T02:18:13.733Z,35.30
2018-12-19T02:20:43.285Z,35.93
2018-12-19T02:23:12.959Z,34.80
2018-12-19T02:25:42.498Z,35.37
2018-12-19T02:28:12.079Z,34.87
2018-12-19T02:30:41.645Z,35.50
2018-12-19T02:33:11.299Z,34.43
2018-12-19T02:35:40.965Z,35.63
2018-12-19T02:38:10.551Z,35.83
2018-12-19T02:40:40.218Z,36.30
2018-12-19T02:43:09.810Z,35.43
2018-12-19T02:45:39.388Z,35.33
2018-12-19T02:48:09.131Z,35.93
2018-12-19T02:50:38.842Z,36.77
2018-12-19T02:53:08.480Z,36.40
2018-12-19T02:55:38.034Z,36.07
2018-12-19T02:58:07.643Z,36.23
2018-12-19T03:00:37.258Z,35.53
2018-12-19T03:03:06.970Z,37.00
2018-12-19T03:05:36.527Z,36.00
2018-12-19T03:08:06.114Z,37.47
2018-12-19T03:10:35.688Z,35.17
2018-12-19T03:13:05.331Z,36.73
2018-12-19T03:15:35.000Z,37.10
2018-12-19T03:18:04.712Z,36.13
2018-12-19T03:20:34.319Z,36.73
2018-12-19T03:23:03.925Z,35.43
2018-12-19T03:25:36.502Z,35.77
2018-12-19T03:28:06.063Z,37.40
2018-12-19T03:30:35.656Z,37.00
2018-12-19T03:33:05.209Z,35.70
2018-12-19T03:35:34.773Z,35.70
2018-12-19T03:38:04.364Z,37.80
2018-12-19T03:40:33.928Z,36.07
2018-12-19T03:43:03.584Z,37.63
2018-12-19T03:45:33.177Z,37.37
2018-12-19T03:48:13.712Z,35.03
2018-12-19T03:50:43.293Z,36.60
2018-12-19T03:53:12.874Z,36.17
2018-12-19T03:55:42.595Z,37.53
2018-12-19T03:58:12.221Z,35.80
2018-12-19T04:00:41.812Z,35.57
2018-12-19T04:03:11.540Z,36.67
2018-12-19T04:05:41.121Z,35.57
2018-12-19T04:08:11.017Z,36.57
2018-12-19T04:10:40.600Z,36.50
2018-12-19T04:13:10.203Z,37.03
2018-12-19T04:15:39.795Z,35.40
2018-12-19T04:18:09.377Z,34.07
2018-12-19T04:20:38.988Z,34.57
2018-12-19T04:23:08.598Z,35.40
2018-12-19T04:25:38.272Z,35.93
2018-12-19T04:28:07.943Z,35.93
2018-12-19T04:30:40.057Z,35.10
2018-12-19T04:33:09.658Z,34.27
2018-12-19T04:35:39.740Z,33.57
2018-12-19T04:38:09.257Z,34.43
2018-12-19T04:40:38.825Z,35.60
2018-12-19T04:43:08.509Z,34.53
2018-12-19T04:45:38.112Z,34.67
2018-12-19T04:48:07.718Z,34.57
2018-12-19T04:50:37.290Z,34.73
2018-12-19T04:53:06.905Z,35.50
2018-12-19T04:55:36.488Z,34.77
2018-12-19T04:58:06.143Z,35.40
2018-12-19T05:00:35.777Z,35.20
2018-12-19T05:03:05.447Z,35.23
2018-12-19T05:05:35.105Z,35.77
2018-12-19T05:08:05.094Z,34.63
2018-12-19T05:10:34.704Z,34.87
2018-12-19T05:13:04.374Z,36.53
2018-12-19T05:15:33.979Z,35.63
2018-12-19T05:18:03.685Z,34.57
2018-12-19T05:20:33.203Z,35.63
2018-12-19T05:36:02.493Z,36.67
2018-12-19T05:38:32.070Z,36.37
2018-12-19T05:41:01.779Z,35.13
2018-12-19T05:43:31.502Z,37.60
2018-12-19T05:46:01.431Z,36.97
2018-12-19T05:48:30.909Z,37.00
2018-12-19T05:51:00.760Z,37.13
2018-12-19T05:53:30.281Z,37.23
2018-12-19T05:56:00.004Z,36.90
2018-12-19T05:58:29.730Z,36.60
2018-12-19T06:01:02.308Z,36.57
2018-12-19T06:03:31.916Z,35.97
2018-12-19T06:06:01.558Z,36.17
2018-12-19T06:08:31.095Z,37.97
2018-12-19T06:11:00.634Z,36.63
2018-12-19T06:13:30.205Z,37.13
2018-12-19T06:15:59.804Z,35.50
2018-12-19T06:18:29.814Z,35.87
2018-12-19T06:20:59.515Z,35.53
2018-12-19T06:23:29.132Z,35.60
2018-12-19T06:25:58.782Z,37.03
2018-12-19T06:28:28.444Z,37.00
2018-12-19T06:30:58.099Z,36.87
2018-12-19T06:33:27.811Z,37.83
2018-12-19T06:35:57.465Z,37.10
2018-12-19T06:38:27.220Z,37.70
2018-12-19T06:40:57.144Z,36.13
2018-12-19T06:43:27.035Z,35.73
2018-12-19T06:45:58.377Z,36.90
2018-12-19T06:48:28.201Z,37.40
2018-12-19T06:50:57.989Z,37.37
2018-12-19T06:53:27.580Z,36.70
2018-12-19T06:55:57.242Z,36.60
2018-12-19T06:58:26.890Z,38.60
2018-12-19T07:00:56.431Z,36.23
2018-12-19T07:03:26.209Z,38.10
2018-12-19T07:05:55.845Z,36.20
2018-12-19T07:08:25.604Z,37.07
2018-12-19T07:10:55.622Z,37.53
2018-12-19T07:13:25.304Z,37.17
2018-12-19T07:15:55.151Z,38.50
2018-12-19T07:18:24.919Z,36.97
2018-12-19T07:20:54.699Z,36.87
2018-12-19T07:23:24.402Z,35.33
2018-12-19T07:25:54.192Z,36.50
2018-12-19T07:28:23.837Z,37.33
2018-12-19T07:30:53.475Z,35.83
2018-12-19T07:33:23.254Z,36.47
2018-12-19T07:35:52.925Z,36.70
2018-12-19T07:38:22.546Z,35.80
2018-12-19T07:40:52.493Z,37.90
2018-12-19T07:43:22.206Z,37.23
2018-12-19T07:45:52.124Z,37.40
2018-12-19T07:48:21.919Z,37.03
2018-12-19T07:50:51.548Z,36.33
2018-12-19T07:53:21.397Z,36.13
2018-12-19T07:55:51.708Z,36.07
2018-12-19T07:58:21.432Z,37.17
2018-12-19T08:00:51.167Z,35.70
2018-12-19T08:03:20.824Z,36.57
2018-12-19T08:05:50.789Z,35.73
2018-12-19T08:08:20.583Z,35.00
2018-12-19T08:10:52.394Z,34.93
2018-12-19T08:13:22.113Z,35.83
2018-12-19T08:15:51.732Z,35.90
2018-12-19T08:18:21.685Z,35.63
2018-12-19T08:20:51.533Z,34.63
2018-12-19T08:23:21.313Z,35.97
2018-12-19T08:25:50.852Z,35.17
2018-12-19T08:28:20.514Z,35.50
2018-12-19T08:30:50.124Z,34.40
2018-12-19T08:33:19.714Z,34.17
2018-12-19T08:35:49.302Z,34.60
2018-12-19T08:38:18.882Z,34.10
2018-12-19T08:40:48.764Z,34.60
2018-12-19T08:43:18.356Z,34.43
2018-12-19T08:45:48.539Z,35.03
2018-12-19T08:48:18.245Z,33.87
2018-12-19T08:50:47.843Z,34.93
2018-12-19T08:53:17.454Z,35.00
2018-12-19T08:55:47.144Z,34.87
2018-12-19T08:58:16.743Z,33.40
2018-12-19T09:00:46.354Z,34.07
2018-12-19T09:03:15.953Z,33.40
2018-12-19T09:05:45.513Z,34.67
2018-12-19T09:08:15.131Z,33.93
2018-12-19T09:10:44.885Z,34.33
2018-12-19T09:13:14.489Z,33.70
2018-12-19T09:15:48.182Z,33.97
2018-12-19T09:18:17.893Z,33.77
2018-12-19T09:20:47.683Z,32.97
2018-12-19T09:23:17.370Z,32.33
2018-12-19T09:25:46.934Z,33.00
2018-12-19T09:28:16.450Z,34.37
2018-12-19T09:30:46.053Z,32.53
2018-12-19T09:33:15.691Z,33.83
2018-12-19T09:35:45.372Z,33.90
2018-12-19T09:38:14.868Z,32.93
2018-12-19T09:40:44.456Z,33.13
2018-12-19T09:43:13.995Z,32.90
2018-12-19T09:45:43.579Z,33.00
2018-12-19T09:48:13.206Z,33.43
2018-12-19T09:50:42.858Z,32.70
2018-12-19T09:53:12.532Z,32.73
2018-12-19T09:55:42.194Z,32.23
2018-12-19T09:58:11.807Z,32.80
2018-12-19T10:00:41.412Z,31.70
2018-12-19T10:03:11.005Z,31.70
2018-12-19T10:05:40.671Z,31.30
2018-12-19T10:08:10.237Z,31.43
2018-12-19T10:10:39.969Z,32.33
2018-12-19T10:13:09.501Z,30.87
2018-12-19T10:15:39.023Z,31.13
2018-12-19T10:18:08.618Z,32.07
2018-12-19T10:20:38.297Z,31.87
2018-12-19T10:23:07.805Z,30.63
2018-12-19T10:25:37.384Z,30.53
2018-12-19T10:28:07.073Z,31.90
2018-12-19T10:30:40.702Z,30.63
2018-12-19T10:33:10.359Z,29.93
2018-12-19T10:35:39.943Z,30.27
2018-12-19T10:38:09.642Z,31.43
2018-12-19T10:40:39.234Z,29.63
2018-12-19T10:43:08.841Z,29.80
2018-12-19T10:45:38.555Z,29.17
2018-12-19T10:48:08.121Z,29.90
2018-12-19T10:50:37.968Z,30.23
2018-12-19T10:53:07.835Z,30.63
2018-12-19T10:55:37.416Z,30.33
2018-12-19T10:58:06.968Z,29.63
2018-12-19T11:00:40.694Z,29.67
2018-12-19T11:03:10.208Z,28.67
2018-12-19T11:05:39.838Z,30.07
2018-12-19T11:08:09.504Z,29.70
2018-12-19T11:10:39.108Z,29.60
2018-12-19T11:13:08.822Z,28.80
2018-12-19T11:15:38.394Z,29.43
2018-12-19T11:18:08.041Z,30.47
2018-12-19T11:20:37.674Z,28.80
2018-12-19T11:23:07.460Z,29.43
2018-12-19T11:25:37.012Z,28.90
2018-12-19T11:28:06.672Z,28.90
2018-12-19T11:30:36.207Z,27.97
2018-12-19T11:33:05.792Z,28.27
2018-12-19T11:35:35.684Z,28.57
2018-12-19T11:38:05.283Z,26.83
2018-12-19T11:40:35.000Z,27.40
2018-12-19T11:43:04.669Z,27.37
2018-12-19T11:45:34.254Z,28.30
2018-12-19T11:48:03.931Z,27.20
2018-12-19T11:50:33.731Z,27.83
2018-12-19T11:53:03.344Z,28.03
2018-12-19T11:55:32.944Z,26.93
2018-12-19T11:58:02.632Z,26.20
2018-12-19T12:00:32.205Z,26.77
2018-12-19T12:03:01.852Z,26.87
2018-12-19T12:05:31.469Z,25.97
2018-12-19T12:08:01.108Z,26.10
2018-12-19T12:10:31.000Z,26.00
2018-12-19T12:13:00.691Z,25.80
2018-12-19T12:15:30.182Z,26.37
2018-12-19T12:17:59.768Z,25.97
2018-12-19T12:20:29.472Z,25.57
2018-12-19T12:22:59.110Z,26.53
2018-12-19T12:25:28.748Z,25.60
2018-12-19T12:27:58.424Z,24.53
2018-12-19T12:30:28.029Z,25.70
2018-12-19T12:32:57.750Z,25.97
2018-12-19T12:35:27.361Z,25.73
2018-12-19T12:37:57.464Z,25.57
2018-12-19T12:40:27.198Z,24.43
2018-12-19T12:42:56.770Z,24.90
2018-12-19T12:45:26.534Z,24.83
2018-12-19T12:47:56.083Z,24.20
2018-12-19T12:50:25.739Z,25.37
2018-12-19T12:52:55.348Z,23.83
2018-12-19T12:55:25.214Z,23.60
2018-12-19T12:57:54.822Z,24.50
2018-12-19T13:00:24.552Z,24.50
2018-12-19T13:02:54.131Z,24.00
2018-12-19T13:05:24.733Z,23.87
2018-12-19T13:07:54.395Z,24.27
2018-12-19T13:10:24.045Z,24.60
2018-12-19T13:12:53.635Z,23.00
2018-12-19T13:15:27.282Z,23.00
2018-12-19T13:17:57.379Z,22.53
2018-12-19T13:20:27.088Z,23.40
2018-12-19T13:22:56.710Z,23.53
2018-12-19T13:25:26.430Z,23.23
2018-12-19T13:27:56.193Z,23.13
2018-12-19T13:30:25.946Z,23.87
2018-12-19T13:32:55.642Z,23.13
2018-12-19T13:35:31.602Z,22.13
2018-12-19T13:38:01.207Z,22.47
2018-12-19T13:40:30.790Z,22.63
2018-12-19T13:43:00.524Z,22.70
2018-12-19T13:45:30.122Z,22.23
2018-12-19T13:47:59.892Z,21.60
2018-12-19T13:50:29.538Z,22.10
2018-12-19T13:52:59.184Z,20.80
2018-12-19T13:55:30.812Z,21.10
2018-12-19T13:58:06.897Z,21.10
2018-12-19T14:00:32.103Z,21.17
2018-12-19T14:03:01.875Z,21.67
2018-12-19T14:05:31.589Z,20.77
2018-12-19T14:08:01.300Z,21.53
2018-12-19T14:10:30.996Z,21.13
2018-12-19T14:13:00.574Z,20.07
2018-12-19T14:15:30.420Z,19.40
2018-12-19T14:18:00.793Z,20.43
2018-12-19T14:20:30.653Z,19.97
2018-12-19T14:23:00.355Z,19.73
2018-12-19T14:25:30.145Z,19.43
2018-12-19T14:27:59.973Z,18.93
2018-12-19T14:30:29.746Z,19.93
2018-12-19T14:32:59.324Z,19.83
2018-12-19T14:35:29.053Z,19.10
2018-12-19T14:37:58.685Z,18.37
2018-12-19T14:40:28.592Z,19.73
2018-12-19T14:42:58.289Z,18.63
2018-12-19T14:45:28.192Z,19.37
2018-12-19T14:47:58.075Z,19.63
2018-12-19T14:50:28.180Z,19.03
2018-12-19T14:52:57.740Z,18.83
2018-12-19T14:55:27.357Z,18.47
2018-12-19T14:57:56.983Z,17.77
2018-12-19T15:00:26.739Z,18.40
2018-12-19T15:02:56.468Z,17.40
2018-12-19T15:05:26.058Z,17.07
2018-12-19T15:07:55.680Z,16.83
2018-12-19T15:10:28.326Z,16.93
2018-12-19T15:12:58.212Z,16.17
2018-12-19T15:15:27.919Z,17.23
2018-12-19T15:17:57.495Z,16.03
2018-12-19T15:20:27.131Z,15.33
2018-12-19T15:22:56.758Z,16.60
2018-12-19T15:25:26.404Z,16.40
2018-12-19T15:27:56.102Z,16.83
2018-12-19T15:30:25.684Z,17.43
2018-12-19T15:32:55.335Z,21.43
2018-12-19T15:35:24.958Z,26.70
2018-12-19T15:37:54.602Z,30.23
2018-12-19T15:40:24.247Z,35.53
2018-12-19T15:42:53.973Z,35.70
2018-12-19T15:45:23.700Z,39.50
2018-12-19T15:47:53.410Z,40.23
2018-12-19T15:50:23.075Z,38.03
2018-12-19T15:52:52.820Z,38.80
2018-12-19T15:55:22.535Z,39.17
2018-12-19T15:57:52.229Z,39.20
2018-12-19T16:00:21.942Z,39.37
2018-12-19T16:02:51.710Z,39.43
2018-12-19T16:05:21.332Z,36.73
2018-12-19T16:07:50.997Z,36.27
2018-12-19T16:10:20.584Z,35.00
2018-12-19T16:12:50.764Z,34.40
2018-12-19T16:15:20.390Z,34.70
2018-12-19T16:17:49.999Z,34.67
2018-12-19T16:20:19.614Z,31.10
2018-12-19T16:22:49.303Z,32.87
2018-12-19T16:25:19.014Z,33.20
2018-12-19T16:27:48.591Z,32.27
2018-12-19T16:30:18.341Z,32.87
2018-12-19T16:32:47.963Z,31.37
2018-12-19T16:35:17.562Z,30.70
2018-12-19T16:37:47.259Z,30.67
2018-12-19T16:40:16.962Z,29.17
2018-12-19T16:42:46.502Z,30.10
2018-12-19T16:45:16.169Z,29.40
2018-12-19T16:47:45.787Z,28.33
2018-12-19T16:50:15.484Z,28.77
2018-12-19T16:52:45.114Z,28.53
2018-12-19T16:55:14.777Z,27.00
2018-12-19T16:57:44.410Z,26.27
2018-12-19T17:00:14.090Z,27.10
2018-12-19T17:02:43.821Z,26.13
2018-12-19T17:05:13.527Z,25.60
2018-12-19T17:07:43.141Z,25.93
2018-12-19T17:10:12.732Z,27.13
2018-12-19T17:12:42.436Z,26.30
2018-12-19T17:15:12.078Z,25.77
2018-12-19T17:17:45.725Z,25.10
2018-12-19T17:20:15.542Z,24.47
2018-12-19T17:22:45.358Z,26.07
2018-12-19T17:25:15.302Z,24.90
2018-12-19T17:27:44.972Z,23.37
2018-12-19T17:30:14.624Z,23.50
2018-12-19T17:32:44.525Z,23.37
2018-12-19T17:35:14.373Z,23.97
2018-12-19T17:37:44.242Z,24.47
2018-12-19T17:40:14.058Z,23.60
2018-12-19T17:42:43.723Z,22.40
2018-12-19T17:45:13.551Z,23.30
2018-12-19T17:47:43.390Z,22.53
2018-12-19T17:50:13.130Z,23.00
2018-12-19T17:52:42.996Z,22.90
2018-12-19T17:55:12.671Z,21.93
2018-12-19T17:57:42.521Z,22.33
2018-12-19T18:00:13.041Z,22.90
2018-12-19T18:02:42.861Z,21.47
2018-12-19T18:05:12.747Z,21.80
2018-12-19T18:07:50.164Z,20.30
2018-12-19T18:10:19.935Z,22.10
2018-12-19T18:12:49.673Z,21.07
2018-12-19T18:15:26.050Z,20.77
2018-12-19T18:17:55.774Z,21.17
2018-12-19T18:22:48.443Z,16.80
2018-12-19T18:26:36.870Z,20.70
2018-12-19T18:29:06.779Z,20.03
2018-12-19T18:31:37.944Z,19.60
2018-12-19T18:34:07.855Z,19.70
2018-12-19T18:36:37.663Z,18.90
2018-12-19T18:39:12.764Z,19.53
2018-12-19T18:41:43.293Z,19.83
2018-12-19T18:44:13.463Z,19.17
2018-12-19T18:46:43.942Z,18.57
2018-12-19T18:49:17.306Z,19.20
2018-12-19T18:51:48.719Z,19.00
2018-12-19T18:54:19.009Z,18.60
2018-12-19T18:59:33.356Z,18.70
2018-12-19T19:02:02.405Z,18.27
2018-12-19T19:04:31.762Z,17.47
2018-12-19T19:07:01.742Z,16.73
2018-12-19T19:20:12.667Z,17.97
2018-12-19T19:23:08.011Z,18.30
2018-12-19T19:30:16.956Z,35.60
2018-12-19T19:32:47.411Z,32.13
2018-12-19T19:35:18.898Z,27.20
2018-12-19T19:37:50.185Z,25.97
2018-12-19T19:40:24.130Z,24.43
2018-12-19T19:42:58.021Z,23.80
2018-12-19T19:45:29.457Z,22.60
2018-12-19T19:48:07.637Z,21.03
2018-12-19T19:50:43.595Z,21.23
2018-12-19T19:53:19.266Z,20.73
2018-12-19T19:55:51.601Z,20.33
2018-12-19T19:58:22.754Z,18.77
2018-12-19T20:00:53.648Z,18.87
2018-12-19T20:03:27.045Z,18.97
2018-12-19T20:05:58.133Z,18.10
2018-12-19T20:08:30.322Z,18.83
2018-12-19T20:11:01.230Z,18.50
2018-12-19T20:13:33.419Z,19.50
2018-12-19T20:16:08.144Z,18.53
2018-12-19T20:18:42.768Z,18.13
2018-12-19T20:21:13.118Z,18.37
2018-12-19T20:23:49.498Z,17.17
2018-12-19T20:26:20.565Z,16.80
2018-12-19T20:28:54.083Z,15.80
2018-12-19T20:31:31.345Z,16.23
2018-12-19T20:34:02.628Z,15.53
2018-12-19T20:36:33.261Z,15.40
2018-12-19T20:39:04.216Z,15.83
2018-12-19T20:41:36.354Z,15.33
2018-12-19T20:44:10.674Z,15.03
2018-12-19T20:46:43.911Z,14.50
2018-12-19T20:49:15.315Z,15.27
2018-12-19T20:51:46.262Z,14.27
2018-12-19T20:54:16.980Z,14.07
2018-12-19T20:56:50.165Z,14.07
2018-12-19T20:59:20.459Z,14.97
2018-12-19T21:01:52.040Z,14.40
2018-12-19T21:04:22.487Z,14.30
2018-12-19T21:06:53.915Z,15.03
2018-12-19T21:09:28.222Z,13.50
2018-12-19T21:11:58.466Z,14.23
2018-12-19T21:14:28.768Z,13.20
2018-12-19T21:17:06.620Z,13.90
2018-12-19T21:19:36.875Z,13.37
2018-12-19T21:22:12.422Z,13.70
2018-12-19T21:24:42.657Z,12.93
2018-12-19T21:27:13.035Z,12.80
2018-12-19T21:29:43.290Z,13.33
2018-12-19T21:32:13.522Z,13.27
2018-12-19T21:34:53.140Z,14.17
2018-12-19T21:37:23.499Z,13.07
2018-12-19T21:39:53.942Z,12.93
2018-12-19T21:42:24.195Z,13.57
2018-12-19T21:44:54.487Z,12.87
2018-12-19T21:47:24.625Z,13.00
2018-12-19T21:49:54.698Z,16.73
2018-12-19T21:52:24.912Z,16.50
2018-12-19T21:54:57.143Z,16.00
2018-12-19T21:57:27.034Z,15.80
2018-12-19T21:59:58.170Z,16.53
2018-12-19T22:02:28.291Z,16.20
2018-12-19T22:04:58.235Z,16.10
2018-12-19T22:07:28.190Z,14.63
2018-12-19T22:09:58.207Z,14.67
2018-12-19T22:12:28.129Z,15.37
2018-12-19T22:14:58.261Z,15.03
2018-12-19T22:17:32.266Z,14.23
2018-12-19T22:20:02.308Z,14.17
2018-12-19T22:22:32.287Z,13.63
2018-12-19T22:25:02.151Z,14.07
2018-12-19T22:27:32.136Z,13.67
2018-12-19T22:30:02.138Z,13.73
2018-12-19T22:32:32.115Z,13.97
2018-12-19T22:35:02.147Z,13.67
2018-12-19T22:37:32.042Z,13.07
2018-12-19T22:40:02.142Z,14.03
2018-12-19T22:42:32.070Z,13.07
2018-12-19T22:45:02.091Z,12.47
2018-12-19T22:47:32.088Z,13.17
2018-12-19T22:50:02.108Z,13.00
2018-12-19T22:52:32.179Z,13.37
2018-12-19T22:55:02.079Z,13.33
2018-12-19T22:57:32.019Z,12.83
2018-12-19T23:00:01.904Z,12.83
2018-12-19T23:02:35.885Z,13.07
2018-12-19T23:05:06.089Z,12.97
2018-12-19T23:07:36.019Z,12.97
2018-12-19T23:10:05.950Z,13.17
2018-12-19T23:12:35.910Z,12.63
2018-12-19T23:15:06.063Z,12.67
2018-12-19T23:17:39.942Z,13.73
2018-12-19T23:20:11.538Z,13.27
2018-12-19T23:22:41.466Z,12.77
2018-12-19T23:25:11.668Z,14.07
2018-12-19T23:27:41.572Z,13.40
2018-12-19T23:30:11.535Z,12.87
2018-12-19T23:32:41.533Z,12.97
2018-12-19T23:35:11.327Z,13.93
2018-12-19T23:37:41.730Z,13.03
2018-12-19T23:40:11.810Z,14.23
2018-12-19T23:42:41.690Z,13.90
2018-12-19T23:45:11.701Z,13.87
2018-12-19T23:47:41.617Z,13.87
2018-12-19T23:50:11.513Z,14.07
2018-12-19T23:52:41.409Z,13.20
2018-12-19T23:55:11.328Z,13.57
2018-12-19T23:57:41.312Z,13.87
